sensor_id;sensor_type;location;lat;lon;timestamp;temperature;humidity
45735;DHT22;31446;49.632;8.328;2023-01-23T00:03:06;2.20;99.90
45735;DHT22;31446;49.632;8.328;2023-01-23T00:18:12;2.10;99.90
45735;DHT22;31446;49.632;8.328;2023-01-23T00:33:19;2.10;99.90
45735;DHT22;31446;49.632;8.328;2023-01-23T00:48:25;2.20;99.90
45735;DHT22;31446;49.632;8.328;2023-01-23T01:03:31;2.10;99.90
45735;DHT22;31446;49.632;8.328;2023-01-23T01:18:38;2.10;99.90
45735;DHT22;31446;49.632;8.328;2023-01-23T01:33:44;2.20;99.90
45735;DHT22;31446;49.632;8.328;2023-01-23T01:49:09;1.90;99.90
45735;DHT22;31446;49.632;8.328;2023-01-23T02:04:16;1.80;99.90
45735;DHT22;31446;49.632;8.328;2023-01-23T02:19:33;2.00;99.90
45735;DHT22;31446;49.632;8.328;2023-01-23T02:34:42;2.00;99.90
45735;DHT22;31446;49.632;8.328;2023-01-23T02:49:49;2.10;99.90
45735;DHT22;31446;49.632;8.328;2023-01-23T03:04:55;2.10;99.90
45735;DHT22;31446;49.632;8.328;2023-01-23T03:20:01;2.00;99.90
45735;DHT22;31446;49.632;8.328;2023-01-23T03:35:09;1.90;99.90
45735;DHT22;31446;49.632;8.328;2023-01-23T03:50:16;1.90;99.90
45735;DHT22;31446;49.632;8.328;2023-01-23T04:05:22;1.90;99.90
45735;DHT22;31446;49.632;8.328;2023-01-23T04:20:28;2.00;99.90
45735;DHT22;31446;49.632;8.328;2023-01-23T04:35:35;2.00;99.90
45735;DHT22;31446;49.632;8.328;2023-01-23T04:50:41;2.00;99.90
45735;DHT22;31446;49.632;8.328;2023-01-23T05:05:47;2.00;99.90
45735;DHT22;31446;49.632;8.328;2023-01-23T05:20:53;2.10;99.90
45735;DHT22;31446;49.632;8.328;2023-01-23T05:36:00;2.10;99.90
45735;DHT22;31446;49.632;8.328;2023-01-23T05:51:07;2.10;99.90
45735;DHT22;31446;49.632;8.328;2023-01-23T06:06:13;2.10;99.90
45735;DHT22;31446;49.632;8.328;2023-01-23T06:21:19;2.10;99.90
45735;DHT22;31446;49.632;8.328;2023-01-23T06:36:26;2.20;99.90
45735;DHT22;31446;49.632;8.328;2023-01-23T06:51:32;2.20;99.90
45735;DHT22;31446;49.632;8.328;2023-01-23T07:06:38;2.20;99.90
45735;DHT22;31446;49.632;8.328;2023-01-23T07:21:46;2.20;99.90
45735;DHT22;31446;49.632;8.328;2023-01-23T07:36:53;2.40;99.90
45735;DHT22;31446;49.632;8.328;2023-01-23T07:52:00;2.50;99.90
45735;DHT22;31446;49.632;8.328;2023-01-23T08:07:06;2.60;99.90
45735;DHT22;31446;49.632;8.328;2023-01-23T08:22:12;2.60;99.90
45735;DHT22;31446;49.632;8.328;2023-01-23T08:37:18;2.90;99.90
45735;DHT22;31446;49.632;8.328;2023-01-23T08:52:24;3.10;99.90
45735;DHT22;31446;49.632;8.328;2023-01-23T09:07:30;3.00;99.90
45735;DHT22;31446;49.632;8.328;2023-01-23T09:22:38;3.10;99.90
45735;DHT22;31446;49.632;8.328;2023-01-23T09:37:45;3.50;99.90
45735;DHT22;31446;49.632;8.328;2023-01-23T09:53:12;3.60;99.90
45735;DHT22;31446;49.632;8.328;2023-01-23T10:08:26;3.50;99.90
45735;DHT22;31446;49.632;8.328;2023-01-23T10:23:44;3.70;99.90
45735;DHT22;31446;49.632;8.328;2023-01-23T10:38:56;4.00;99.90
45735;DHT22;31446;49.632;8.328;2023-01-23T10:54:11;4.40;99.90
45735;DHT22;31446;49.632;8.328;2023-01-23T11:09:20;4.30;99.90
45735;DHT22;31446;49.632;8.328;2023-01-23T11:24:31;4.00;99.90
45735;DHT22;31446;49.632;8.328;2023-01-23T11:39:44;4.00;99.90
45735;DHT22;31446;49.632;8.328;2023-01-23T11:55:09;3.90;99.90
45735;DHT22;31446;49.632;8.328;2023-01-23T12:10:24;3.90;99.90
45735;DHT22;31446;49.632;8.328;2023-01-23T12:25:34;3.90;99.90
45735;DHT22;31446;49.632;8.328;2023-01-23T12:40:43;4.20;99.90
45735;DHT22;31446;49.632;8.328;2023-01-23T12:55:57;4.30;99.90
45735;DHT22;31446;49.632;8.328;2023-01-23T13:11:09;5.00;99.90
45735;DHT22;31446;49.632;8.328;2023-01-23T13:26:31;4.90;99.90
45735;DHT22;31446;49.632;8.328;2023-01-23T13:41:37;4.70;99.90
45735;DHT22;31446;49.632;8.328;2023-01-23T13:56:45;4.40;99.90
45735;DHT22;31446;49.632;8.328;2023-01-23T14:11:59;4.50;99.90
45735;DHT22;31446;49.632;8.328;2023-01-23T14:27:15;4.40;99.90
45735;DHT22;31446;49.632;8.328;2023-01-23T14:42:25;4.50;99.90
45735;DHT22;31446;49.632;8.328;2023-01-23T14:57:32;4.40;99.90
45735;DHT22;31446;49.632;8.328;2023-01-23T15:12:39;4.20;99.90
45735;DHT22;31446;49.632;8.328;2023-01-23T15:27:51;3.90;99.90
45735;DHT22;31446;49.632;8.328;2023-01-23T15:43:05;3.80;99.90
45735;DHT22;31446;49.632;8.328;2023-01-23T15:58:15;3.40;99.90
45735;DHT22;31446;49.632;8.328;2023-01-23T16:13:21;2.80;99.90
45735;DHT22;31446;49.632;8.328;2023-01-23T16:28:27;2.30;99.90
45735;DHT22;31446;49.632;8.328;2023-01-23T16:43:34;2.60;99.90
45735;DHT22;31446;49.632;8.328;2023-01-23T16:58:41;3.00;99.90
45735;DHT22;31446;49.632;8.328;2023-01-23T17:13:47;3.10;99.90
45735;DHT22;31446;49.632;8.328;2023-01-23T17:28:55;2.80;99.90
45735;DHT22;31446;49.632;8.328;2023-01-23T17:44:01;2.60;99.90
45735;DHT22;31446;49.632;8.328;2023-01-23T17:59:08;2.50;99.90
45735;DHT22;31446;49.632;8.328;2023-01-23T18:14:30;2.40;99.90
45735;DHT22;31446;49.632;8.328;2023-01-23T18:29:55;2.30;99.90
45735;DHT22;31446;49.632;8.328;2023-01-23T18:45:09;2.00;99.90
45735;DHT22;31446;49.632;8.328;2023-01-23T19:00:21;1.90;99.90
45735;DHT22;31446;49.632;8.328;2023-01-23T19:15:37;1.80;99.90
45735;DHT22;31446;49.632;8.328;2023-01-23T19:30:46;2.10;99.90
45735;DHT22;31446;49.632;8.328;2023-01-23T19:45:52;2.40;99.90
45735;DHT22;31446;49.632;8.328;2023-01-23T20:00:58;2.60;99.90
45735;DHT22;31446;49.632;8.328;2023-01-23T20:16:09;2.70;99.90
45735;DHT22;31446;49.632;8.328;2023-01-23T20:31:18;2.70;99.90
45735;DHT22;31446;49.632;8.328;2023-01-23T20:46:24;2.90;99.90
45735;DHT22;31446;49.632;8.328;2023-01-23T21:01:32;2.80;99.90
45735;DHT22;31446;49.632;8.328;2023-01-23T21:16:59;2.80;99.90
45735;DHT22;31446;49.632;8.328;2023-01-23T21:32:10;2.70;99.90
45735;DHT22;31446;49.632;8.328;2023-01-23T21:47:16;2.80;99.90
45735;DHT22;31446;49.632;8.328;2023-01-23T22:02:22;3.00;99.90
45735;DHT22;31446;49.632;8.328;2023-01-23T22:17:29;2.90;99.90
45735;DHT22;31446;49.632;8.328;2023-01-23T22:32:36;2.90;99.90
45735;DHT22;31446;49.632;8.328;2023-01-23T22:47:42;3.00;99.90
45735;DHT22;31446;49.632;8.328;2023-01-23T23:02:48;3.00;99.90
45735;DHT22;31446;49.632;8.328;2023-01-23T23:17:54;3.10;99.90
45735;DHT22;31446;49.632;8.328;2023-01-23T23:33:00;3.10;99.90
45735;DHT22;31446;49.632;8.328;2023-01-23T23:48:06;3.10;99.90
